الصفحة الرئيسية
METAR-TAF:

METAR-TAF

مطار :

كراسنودار, روسيا

دائرة عرض: 45-02N, خط طول: 039-09E, ارتفاع: 33 متر

مراقبة الطقس الحالي

تاريخ ووقت الإصدار 17 دقيقة قبل الساعة 02:30UTC
رياح هادئة
درجة الحرارة 22°درجة مئوية
الرطوبة 53%
ضغط 1008 hPa
الرؤية 10 كم أو أكثر
الغيوم لا تقل 1500 م ولا وجود لمزنة ركامية السحاب الأسود

METAR: URKK 160230Z 00000MPS CAVOK 22/12 Q1008 R05R/CLRD70 NOSIG RMK QFE753

زمن: 06:47 (02:47 UTC)

توقعات

تاريخ ووقت الإصدار 52 دقيقة قبل الساعة 01:55UTC
التوقعات صالحة من16 الساعة 03 UTC إلى 17 الساعة 03 UTC
ريح 6 عقدة من الشرق/الشمال الشرقي تتزايد حتى 16 عقدة
الرؤية 10 كم أو أكثر
الغيوم لا تقل 1500 م ولا وجود لمزنة ركامية السحاب الأسود
مؤقت
من 16 الساعة 09 UTC إلى 16 الساعة 21 UTC
ريح 14 عقدة من الشمال الشرقي تتزايد حتى 25 عقدة

TAF: URKK 160155Z 1603/1703 07003G08MPS CAVOK TEMPO 1609/1621 04007G13MPS

أرصاد الطقس والتوقعات من أكثر من 4000 مطار (تقارير الطقس للمطار METAR والتنبؤ بالطقس بالمطارTAF).

المحطات المتاحة هي النقط الصفراء والحمراء على الخريطة.

حرك المؤشر فوق النقطة لمعرفة اسم المحطة.

ثم انقر لمعرفة أرصاد وتوقعات الطقس.

لتغيير الخارطة: اضغط على الأزرار الخضراء مع رمز الصليب الأسود للتكبير. على الزر الأخضر مع شرطة للتصغير، أو على الأسهم الخضراء للخرائط المجاورة.


METAR-TAF: